Time;durP1;ratioP1;P1;durP2;ratioP2;P2;SDS_P1;SDS_P2;PMS_P1;PMS_P2;Temp;Humidity;BMP_temperature;BMP_pressure;BME280_temperature;BME280_humidity;BME280_pressure;Samples;Min_cycle;Max_cycle;Signal;HPM_P1;HPM_P2
2021/10/30 00:00:21;;;;;;;8.20;7.60;;;;;;;4.07;97.92;95201.84;5018940;28;20224;-70
2021/10/30 00:02:49;;;;;;;6.73;6.33;;;;;;;4.02;98.64;95201.47;5037074;28;20240;-70
2021/10/30 00:05:17;;;;;;;7.53;6.93;;;;;;;4.04;98.70;95196.13;5017665;28;20317;-69
2021/10/30 00:07:45;;;;;;;8.00;7.40;;;;;;;3.94;98.41;95193.63;5020663;28;20224;-69
2021/10/30 00:10:16;;;;;;;6.43;6.03;;;;;;;3.91;99.01;95194.75;5033760;28;20288;-70
2021/10/30 00:12:44;;;;;;;8.33;7.63;;;;;;;3.91;98.93;95193.91;5015906;28;20237;-69
2021/10/30 00:15:12;;;;;;;8.63;8.00;;;;;;;3.98;99.12;95194.94;5015116;28;20219;-69
2021/10/30 00:17:40;;;;;;;7.97;7.40;;;;;;;4.04;99.43;95189.13;5017700;28;20261;-69
2021/10/30 00:20:09;;;;;;;8.87;8.10;;;;;;;4.13;98.71;95185.56;5019337;28;20225;-69
2021/10/30 00:22:37;;;;;;;9.40;7.40;;;;;;;4.06;98.59;95181.94;5021025;28;20219;-69
2021/10/30 00:25:07;;;;;;;6.77;6.33;;;;;;;3.97;98.53;95177.66;5024470;28;20560;-69
2021/10/30 00:27:37;;;;;;;6.37;5.97;;;;;;;3.92;98.66;95172.06;5019073;28;20225;-69
2021/10/30 00:30:06;;;;;;;7.00;6.53;;;;;;;3.97;98.62;95182.88;5019838;28;20222;-69
2021/10/30 00:32:34;;;;;;;8.77;8.17;;;;;;;3.99;98.13;95180.91;5005097;28;20254;-69
2021/10/30 00:35:03;;;;;;;8.47;7.83;;;;;;;3.90;98.02;95176.63;5034967;28;20225;-69
2021/10/30 00:37:31;;;;;;;8.23;7.63;;;;;;;3.87;98.66;95174.34;5021377;28;20533;-69
2021/10/30 00:39:59;;;;;;;6.97;6.47;;;;;;;3.83;98.78;95165.97;5025029;28;20212;-69
2021/10/30 00:42:27;;;;;;;8.07;7.57;;;;;;;3.93;98.92;95171.09;5023642;28;20569;-69
2021/10/30 00:44:57;;;;;;;6.97;6.47;;;;;;;3.90;98.99;95174.00;5016993;28;20253;-69
2021/10/30 00:47:25;;;;;;;6.60;6.10;;;;;;;3.87;98.29;95175.16;5023219;28;20292;-69
2021/10/30 00:49:54;;;;;;;6.37;5.97;;;;;;;3.84;98.10;95182.44;5019873;28;20765;-69
2021/10/30 00:52:22;;;;;;;6.40;6.00;;;;;;;3.76;98.07;95169.38;5006839;28;20322;-69
2021/10/30 00:54:56;;;;;;;9.47;7.67;;;;;;;3.66;98.06;95172.09;5005561;28;20219;-69
2021/10/30 00:57:26;;;;;;;8.10;7.50;;;;;;;3.64;98.25;95167.00;5033437;28;20237;-69
2021/10/30 00:59:54;;;;;;;6.93;5.97;;;;;;;3.61;97.86;95167.31;5026504;28;20255;-69
2021/10/30 01:02:24;;;;;;;6.77;6.27;;;;;;;3.55;97.76;95157.50;5024872;28;20751;-69
2021/10/30 01:04:53;;;;;;;7.07;6.57;;;;;;;3.52;98.29;95157.81;5020181;28;20301;-69
2021/10/30 01:07:21;;;;;;;6.57;6.17;;;;;;;3.54;98.70;95162.88;5010017;28;20226;-69
2021/10/30 01:09:52;;;;;;;10.03;6.57;;;;;;;3.55;98.89;95165.31;5009023;28;20340;-70
2021/10/30 01:12:20;;;;;;;7.03;6.63;;;;;;;3.50;98.56;95164.97;5018289;28;20311;-69
2021/10/30 01:14:49;;;;;;;7.47;6.97;;;;;;;3.47;98.61;95175.69;5032383;28;20212;-69
2021/10/30 01:17:19;;;;;;;7.07;6.67;;;;;;;3.47;98.93;95178.31;5025757;28;20225;-69
2021/10/30 01:19:52;;;;;;;10.57;9.77;;;;;;;3.58;99.09;95167.63;5020891;28;20286;-70
2021/10/30 01:22:23;;;;;;;16.60;12.87;;;;;;;3.60;98.79;95160.47;5026271;28;20734;-69
2021/10/30 01:24:52;;;;;;;13.87;12.80;;;;;;;3.57;98.20;95162.56;5026725;28;20656;-69
2021/10/30 01:27:22;;;;;;;11.03;10.17;;;;;;;3.53;98.45;95164.66;5020279;28;20216;-69
2021/10/30 01:29:51;;;;;;;10.57;9.87;;;;;;;3.48;99.03;95151.28;5025783;28;20306;-69
2021/10/30 01:32:21;;;;;;;11.40;10.60;;;;;;;3.48;98.96;95151.28;5019669;28;20226;-69
2021/10/30 01:34:48;;;;;;;11.73;10.73;;;;;;;3.45;99.42;95135.91;5023798;28;20494;-69
2021/10/30 01:37:18;;;;;;;10.50;9.83;;;;;;;3.44;99.30;95126.44;5024858;28;20317;-70
2021/10/30 01:39:46;;;;;;;11.50;10.70;;;;;;;3.44;99.43;95108.19;5026711;28;20653;-70
2021/10/30 01:42:14;;;;;;;11.37;10.40;;;;;;;3.55;99.51;95109.72;5025801;28;20474;-70
2021/10/30 01:44:42;;;;;;;11.20;10.43;;;;;;;3.53;99.38;95112.47;5027395;28;20216;-69
2021/10/30 01:47:12;;;;;;;10.47;9.73;;;;;;;3.50;99.17;95123.25;5021777;28;20230;-69
2021/10/30 01:49:40;;;;;;;10.03;9.43;;;;;;;3.50;99.49;95119.81;5040573;28;20216;-69
2021/10/30 01:52:08;;;;;;;10.93;10.13;;;;;;;3.52;99.59;95110.84;5042999;28;20314;-69
2021/10/30 01:54:38;;;;;;;10.00;9.30;;;;;;;3.55;100.00;95102.72;5028622;28;20219;-70
2021/10/30 01:57:07;;;;;;;10.70;9.93;;;;;;;3.52;99.94;95103.03;5033654;28;20721;-69
2021/10/30 01:59:35;;;;;;;12.33;11.33;;;;;;;3.57;99.89;95106.00;5027543;28;20585;-69
2021/10/30 02:02:03;;;;;;;9.00;8.47;;;;;;;3.59;100.00;95104.06;5008372;28;20318;-69
2021/10/30 02:04:31;;;;;;;10.03;9.33;;;;;;;3.69;99.15;95101.31;5038425;28;20222;-70
2021/10/30 02:06:59;;;;;;;10.53;9.83;;;;;;;3.66;98.90;95092.03;5041795;28;20228;-69
2021/10/30 02:09:27;;;;;;;9.87;9.17;;;;;;;3.68;98.61;95089.25;5043583;28;20286;-69
2021/10/30 02:11:57;;;;;;;9.03;8.43;;;;;;;3.54;97.77;95098.47;5035613;28;20235;-69
2021/10/30 02:14:25;;;;;;;7.17;6.77;;;;;;;3.49;98.59;95100.75;5030098;28;20369;-70
2021/10/30 02:16:53;;;;;;;8.13;7.60;;;;;;;3.54;98.68;95103.69;5020031;28;20235;-69
2021/10/30 02:19:22;;;;;;;8.47;7.97;;;;;;;3.59;98.45;95106.66;5012795;28;20311;-69
2021/10/30 02:21:50;;;;;;;7.87;7.37;;;;;;;3.56;97.84;95125.22;5010261;28;20302;-69
2021/10/30 02:24:18;;;;;;;7.60;7.10;;;;;;;3.53;97.87;95122.09;5010670;28;20688;-69
2021/10/30 02:26:46;;;;;;;7.83;6.27;;;;;;;3.51;98.00;95124.88;5023636;28;20765;-69
2021/10/30 02:29:16;;;;;;;5.20;4.90;;;;;;;3.44;97.45;95113.41;5003237;28;20370;-69
2021/10/30 02:31:44;;;;;;;4.63;4.43;;;;;;;3.37;97.52;95107.16;5015811;28;20873;-69
2021/10/30 02:34:13;;;;;;;5.53;5.20;;;;;;;3.23;97.55;95111.16;5010974;28;20244;-69
2021/10/30 02:36:41;;;;;;;4.27;4.07;;;;;;;3.18;97.96;95107.34;5021538;28;20314;-69
2021/10/30 02:39:11;;;;;;;4.43;4.23;;;;;;;3.17;98.42;95106.53;5035082;28;20221;-69
2021/10/30 02:41:40;;;;;;;5.50;4.77;;;;;;;3.12;98.60;95099.19;5007976;28;20737;-69
2021/10/30 02:44:08;;;;;;;4.10;3.90;;;;;;;3.08;98.29;95103.06;5009981;28;20224;-69
2021/10/30 02:46:37;;;;;;;4.17;3.97;;;;;;;3.07;99.20;95096.22;5022285;28;20265;-69
2021/10/30 02:49:06;;;;;;;4.47;4.20;;;;;;;3.11;99.19;95081.91;5022945;28;20240;-69
2021/10/30 02:51:34;;;;;;;5.40;4.90;;;;;;;3.16;99.29;95083.22;5016792;28;20724;-69
2021/10/30 02:54:03;;;;;;;5.40;5.00;;;;;;;3.16;99.29;95078.84;5009333;28;20335;-69
2021/10/30 02:56:31;;;;;;;6.33;5.93;;;;;;;3.18;99.67;95076.06;5018880;28;20251;-69
2021/10/30 02:58:59;;;;;;;3.53;3.33;;;;;;;3.18;99.33;95076.06;5022389;28;20239;-69
2021/10/30 03:01:27;;;;;;;4.20;3.93;;;;;;;3.14;98.87;95073.78;5011799;28;20324;-69
2021/10/30 03:03:57;;;;;;;4.53;4.30;;;;;;;3.18;98.97;95070.84;5017553;28;20227;-69
2021/10/30 03:06:26;;;;;;;4.77;4.37;;;;;;;3.17;99.19;95066.63;5009221;28;20311;-69
2021/10/30 03:08:54;;;;;;;5.30;5.00;;;;;;;3.11;98.35;95079.31;5004445;28;20256;-69
2021/10/30 03:11:22;;;;;;;4.60;4.30;;;;;;;3.12;99.11;95083.56;5017038;28;20245;-69
2021/10/30 03:13:50;;;;;;;4.53;4.23;;;;;;;3.12;98.74;95086.16;5022800;28;20219;-69
2021/10/30 03:16:18;;;;;;;5.27;4.97;;;;;;;3.09;99.46;95068.19;5014311;28;20262;-69
2021/10/30 03:18:47;;;;;;;4.13;3.93;;;;;;;3.09;99.23;95068.19;5022789;28;20234;-69
2021/10/30 03:21:16;;;;;;;4.80;4.50;;;;;;;3.07;99.29;95064.94;5025886;28;20236;-69
2021/10/30 03:23:44;;;;;;;3.40;3.20;;;;;;;3.11;99.22;95061.06;5027028;28;20728;-69
2021/10/30 03:26:12;;;;;;;8.13;4.70;;;;;;;3.18;99.12;95061.25;5017499;28;20243;-69
2021/10/30 03:28:41;;;;;;;4.53;4.30;;;;;;;3.19;98.76;95062.88;5023635;28;20254;-68
2021/10/30 03:31:09;;;;;;;4.23;4.03;;;;;;;3.13;98.40;95061.72;5025981;28;20307;-70
2021/10/30 03:33:37;;;;;;;18.07;5.77;;;;;;;2.95;98.21;95055.72;5006547;28;20227;-69
2021/10/30 03:36:06;;;;;;;4.67;4.47;;;;;;;2.97;98.53;95043.34;5022890;28;20270;-69
2021/10/30 03:38:37;;;;;;;5.37;5.10;;;;;;;3.06;98.27;95052.88;5037553;28;20237;-70
2021/10/30 03:41:07;;;;;;;3.83;3.63;;;;;;;2.97;98.62;95032.94;5045404;28;20224;-69
2021/10/30 03:43:35;;;;;;;4.40;4.20;;;;;;;3.05;98.74;95042.59;5028291;28;20254;-69
2021/10/30 03:46:03;;;;;;;4.33;4.13;;;;;;;3.07;98.65;95044.06;5022146;28;20243;-69
2021/10/30 03:48:31;;;;;;;6.00;5.53;;;;;;;3.12;98.43;95031.41;5014299;28;25243;-69
2021/10/30 03:50:59;;;;;;;5.80;3.90;;;;;;;2.96;98.04;95046.94;5009421;28;20307;-69
2021/10/30 03:53:28;;;;;;;6.20;5.90;;;;;;;3.12;97.40;95041.84;5025657;28;20266;-69
2021/10/30 03:55:57;;;;;;;4.53;4.23;;;;;;;2.95;97.75;95031.47;5018268;28;20306;-69
2021/10/30 03:58:26;;;;;;;3.43;3.23;;;;;;;2.99;97.82;95040.59;5021494;28;20247;-69
2021/10/30 04:00:54;;;;;;;4.63;4.23;;;;;;;2.91;97.92;95033.53;5013425;28;20701;-69
2021/10/30 04:03:23;;;;;;;4.50;4.20;;;;;;;2.85;98.18;95031.56;5037801;28;20697;-69
2021/10/30 04:05:52;;;;;;;3.80;3.60;;;;;;;2.83;98.45;95036.06;5015602;28;20280;-69
2021/10/30 04:08:20;;;;;;;26.37;6.37;;;;;;;2.76;98.54;95025.47;5044797;28;20243;-69
2021/10/30 04:10:48;;;;;;;3.70;3.50;;;;;;;2.80;97.82;95018.16;5042794;28;20265;-69
2021/10/30 04:13:18;;;;;;;4.27;4.00;;;;;;;2.83;98.71;95030.88;5044140;28;20247;-69
2021/10/30 04:15:46;;;;;;;4.63;4.43;;;;;;;2.86;98.06;95022.75;5034846;28;20291;-69
2021/10/30 04:18:14;;;;;;;4.13;3.93;;;;;;;2.90;97.69;95016.25;5033660;28;20224;-69
2021/10/30 04:20:43;;;;;;;4.67;4.40;;;;;;;2.85;97.61;95013.31;5017617;28;20258;-70
2021/10/30 04:23:11;;;;;;;4.57;4.17;;;;;;;2.84;97.44;95016.91;5023799;28;20389;-69
2021/10/30 04:25:40;;;;;;;5.27;4.87;;;;;;;2.78;98.38;95014.88;5015545;28;20223;-69
2021/10/30 04:28:07;;;;;;;4.40;4.10;;;;;;;2.83;98.50;95012.63;5019086;28;20228;-70
2021/10/30 04:30:37;;;;;;;4.83;4.63;;;;;;;2.84;97.81;95017.72;5024010;28;20708;-69
2021/10/30 04:33:06;;;;;;;4.67;4.43;;;;;;;2.83;98.33;95005.66;5020588;28;20306;-69
2021/10/30 04:35:35;;;;;;;4.50;4.20;;;;;;;2.85;97.54;95003.72;5023843;28;20231;-69
2021/10/30 04:38:03;;;;;;;4.13;3.93;;;;;;;2.90;97.76;95007.63;5015643;28;20233;-69
2021/10/30 04:40:31;;;;;;;5.27;4.97;;;;;;;2.84;97.59;94996.06;5028628;28;20292;-69
2021/10/30 04:43:00;;;;;;;4.90;4.60;;;;;;;2.87;97.63;94974.88;5037891;28;20223;-69
2021/10/30 04:45:28;;;;;;;5.43;5.13;;;;;;;2.82;97.43;94977.13;5024047;28;20250;-69
2021/10/30 04:47:58;;;;;;;7.47;6.87;;;;;;;2.82;97.97;94975.34;5022626;28;20295;-69
2021/10/30 04:50:26;;;;;;;10.40;9.60;;;;;;;2.80;97.67;94964.25;5031004;28;20741;-69
2021/10/30 04:52:54;;;;;;;5.40;5.10;;;;;;;2.68;97.72;94964.66;5018134;28;20234;-70
2021/10/30 04:55:22;;;;;;;5.13;4.83;;;;;;;2.66;97.97;94969.22;5025843;28;20223;-70
2021/10/30 04:57:50;;;;;;;5.00;4.70;;;;;;;2.76;98.45;94959.50;5018096;28;20251;-69
2021/10/30 05:00:18;;;;;;;4.47;4.23;;;;;;;2.72;97.88;94952.97;5024005;28;20800;-70
2021/10/30 05:02:46;;;;;;;4.77;4.50;;;;;;;2.73;97.26;94954.59;5019267;28;20227;-70
2021/10/30 05:05:15;;;;;;;5.30;5.00;;;;;;;2.87;97.07;94943.63;5022430;28;20220;-70
2021/10/30 05:07:43;;;;;;;4.73;4.43;;;;;;;3.64;94.94;94934.81;5041289;28;20227;-70
2021/10/30 05:10:13;;;;;;;3.63;3.43;;;;;;;3.77;93.07;94936.16;5034260;28;20211;-69
2021/10/30 05:12:41;;;;;;;4.60;4.20;;;;;;;3.83;92.24;94919.84;5036740;28;20214;-69
2021/10/30 05:15:09;;;;;;;5.10;4.10;;;;;;;3.86;91.71;94916.94;5030036;28;20248;-69
2021/10/30 05:17:37;;;;;;;3.60;3.40;;;;;;;3.87;91.93;94918.56;5035950;28;20308;-69
2021/10/30 05:20:07;;;;;;;3.63;3.43;;;;;;;3.87;92.23;94921.16;5041570;28;20230;-69
2021/10/30 05:22:36;;;;;;;4.97;4.73;;;;;;;3.84;92.31;94916.25;5057548;28;20223;-69
2021/10/30 05:25:05;;;;;;;3.50;3.30;;;;;;;3.81;92.46;94916.59;5025809;28;20799;-70
2021/10/30 05:27:32;;;;;;;3.83;3.63;;;;;;;3.82;92.26;94913.81;5008064;28;20220;-69
2021/10/30 05:30:00;;;;;;;3.70;3.50;;;;;;;3.81;91.88;94912.19;5009233;28;20254;-69
2021/10/30 05:32:29;;;;;;;4.23;3.93;;;;;;;3.85;92.35;94910.09;5020225;28;20216;-69
2021/10/30 05:35:17;;;;;;;4.97;4.40;;;;;;;3.78;92.22;94901.25;5003243;28;20268;-70
2021/10/30 05:38:05;;;;;;;5.83;5.33;;;;;;;3.75;92.31;94891.13;5007198;28;20568;-69
2021/10/30 05:40:35;;;;;;;4.50;4.20;;;;;;;3.94;91.71;94888.22;5004976;28;20246;-68
2021/10/30 05:43:05;;;;;;;4.83;4.50;;;;;;;4.02;91.48;94885.59;5011917;28;20788;-68
2021/10/30 05:45:33;;;;;;;5.37;4.87;;;;;;;3.97;91.33;94885.28;5008629;28;20212;-67
2021/10/30 05:48:03;;;;;;;4.83;4.53;;;;;;;3.92;90.96;94882.34;5008839;28;20301;-67
2021/10/30 05:50:32;;;;;;;3.60;3.40;;;;;;;3.92;91.11;94883.16;5007484;28;20213;-67
2021/10/30 05:53:00;;;;;;;3.23;3.03;;;;;;;3.94;91.21;94880.41;5004824;28;20253;-68
2021/10/30 05:55:30;;;;;;;3.90;3.70;;;;;;;4.02;91.71;94877.75;5023784;28;20719;-67
2021/10/30 05:57:58;;;;;;;4.17;3.73;;;;;;;4.20;90.54;94878.41;5023228;28;20223;-68
2021/10/30 06:00:27;;;;;;;3.73;3.43;;;;;;;4.03;90.08;94879.44;5008337;28;20751;-67
2021/10/30 06:02:59;;;;;;;4.67;4.27;;;;;;;3.94;90.17;94873.38;5008705;28;20228;-67
2021/10/30 06:05:27;;;;;;;2.47;2.37;;;;;;;3.91;90.21;94872.88;5007983;28;20576;-68
2021/10/30 06:07:56;;;;;;;4.37;3.60;;;;;;;3.99;90.75;94867.66;5008687;28;20230;-67
2021/10/30 06:10:24;;;;;;;3.40;3.20;;;;;;;4.02;90.32;94867.31;5020329;28;20247;-68
2021/10/30 06:12:54;;;;;;;3.90;3.70;;;;;;;4.18;89.69;94883.00;5008879;28;20238;-67
2021/10/30 06:15:23;;;;;;;4.03;3.83;;;;;;;4.10;89.88;94869.94;5003225;28;20349;-67
2021/10/30 06:17:51;;;;;;;5.93;3.47;;;;;;;3.97;90.08;94864.41;5007091;28;20306;-68
2021/10/30 06:20:18;;;;;;;3.13;2.93;;;;;;;3.93;89.59;94852.63;4999447;28;20220;-67
2021/10/30 06:22:47;;;;;;;3.83;3.63;;;;;;;3.98;90.19;94860.81;5005882;28;20455;-67
2021/10/30 06:25:16;;;;;;;3.67;3.47;;;;;;;3.92;90.41;94857.03;5022959;28;20223;-67
2021/10/30 06:27:44;;;;;;;3.43;3.23;;;;;;;4.05;90.34;94859.19;5007190;28;20857;-67
2021/10/30 06:30:15;;;;;;;4.40;3.90;;;;;;;4.06;90.22;94866.03;5020715;28;20305;-67
2021/10/30 06:32:43;;;;;;;4.07;3.87;;;;;;;4.38;89.02;94856.53;5021884;28;20238;-67
2021/10/30 06:35:11;;;;;;;6.07;3.83;;;;;;;4.59;87.23;94864.69;5008177;28;20726;-67
2021/10/30 06:37:40;;;;;;;19.60;5.93;;;;;;;4.78;86.51;94866.09;5007765;28;20220;-67
2021/10/30 06:40:10;;;;;;;5.80;3.00;;;;;;;5.03;85.63;94841.53;5003901;28;20224;-67
2021/10/30 06:42:39;;;;;;;3.67;3.37;;;;;;;5.13;85.34;94849.16;5008364;28;20419;-67
2021/10/30 06:45:08;;;;;;;3.63;3.33;;;;;;;6.43;82.42;94850.91;5007575;28;20216;-67
2021/10/30 06:47:38;;;;;;;4.40;4.10;;;;;;;4.46;83.01;94859.94;5008128;28;20239;-67
2021/10/30 06:50:08;;;;;;;3.93;3.67;;;;;;;3.11;91.32;94852.53;5008369;28;20254;-67
2021/10/30 06:52:40;;;;;;;3.73;3.53;;;;;;;2.84;94.32;94850.13;5005993;28;20342;-67
2021/10/30 06:55:10;;;;;;;4.00;3.80;;;;;;;2.77;95.85;94869.97;5012199;28;20251;-67
2021/10/30 06:57:38;;;;;;;4.00;3.70;;;;;;;2.72;96.66;94851.38;5006906;28;20230;-67
2021/10/30 07:00:09;;;;;;;2.93;2.80;;;;;;;2.71;97.20;94854.94;5003271;28;20227;-67
2021/10/30 07:02:39;;;;;;;4.50;4.13;;;;;;;2.78;97.71;94855.97;5027589;28;20215;-67
2021/10/30 07:05:08;;;;;;;5.17;4.87;;;;;;;2.80;97.49;94846.19;5027634;28;20216;-67
2021/10/30 07:07:36;;;;;;;3.63;3.47;;;;;;;2.83;97.62;94840.66;5032993;28;20230;-67
2021/10/30 07:10:06;;;;;;;5.00;4.70;;;;;;;2.90;97.88;94853.88;5018298;28;20315;-67
2021/10/30 07:12:36;;;;;;;3.43;3.23;;;;;;;2.92;98.31;94855.34;5016247;28;20223;-67
2021/10/30 07:15:06;;;;;;;3.40;3.20;;;;;;;3.00;97.80;94854.56;5015005;28;20225;-67
2021/10/30 07:17:34;;;;;;;4.30;4.10;;;;;;;3.01;97.87;94851.81;5007562;28;20223;-68
2021/10/30 07:20:04;;;;;;;5.27;3.87;;;;;;;3.05;98.46;94857.53;5014506;28;20219;-67
2021/10/30 07:22:40;;;;;;;4.00;3.80;;;;;;;3.10;98.25;94845.66;5009816;28;20235;-67
2021/10/30 07:25:09;;;;;;;18.27;5.07;;;;;;;3.05;96.66;94840.09;5020512;28;20243;-67
2021/10/30 07:27:37;;;;;;;2.87;2.77;;;;;;;3.10;96.78;94834.41;5021138;28;20258;-68
2021/10/30 07:30:07;;;;;;;4.37;4.07;;;;;;;3.14;97.14;94833.94;5036995;28;20251;-67
2021/10/30 07:32:35;;;;;;;4.17;3.97;;;;;;;3.22;97.26;94820.13;5005400;28;21155;-67
2021/10/30 07:35:06;;;;;;;6.33;3.70;;;;;;;3.26;96.54;94807.56;5003812;28;20215;-67
2021/10/30 07:37:34;;;;;;;3.77;3.57;;;;;;;3.32;96.31;94817.38;5006746;28;20243;-67
2021/10/30 07:40:03;;;;;;;3.00;2.80;;;;;;;3.32;96.49;94809.56;5005853;28;20220;-67
2021/10/30 07:42:31;;;;;;;3.63;3.43;;;;;;;3.36;95.63;94810.84;5007627;28;20241;-67
2021/10/30 07:45:00;;;;;;;2.47;2.37;;;;;;;3.30;94.87;94817.53;5011461;28;20231;-67
2021/10/30 07:47:28;;;;;;;3.07;2.97;;;;;;;3.24;95.79;94815.56;5021934;28;20247;-66
2021/10/30 07:49:56;;;;;;;3.60;3.40;;;;;;;3.23;95.93;94805.28;5020763;28;20294;-67
2021/10/30 07:52:26;;;;;;;9.37;3.20;;;;;;;3.23;96.33;94792.25;5017623;28;20236;-67
2021/10/30 07:54:54;;;;;;;5.40;3.67;;;;;;;3.29;96.46;94791.59;5007315;28;20224;-67
2021/10/30 07:57:22;;;;;;;5.43;4.77;;;;;;;3.35;96.54;94801.41;5011230;28;20594;-67
2021/10/30 07:59:51;;;;;;;3.87;3.67;;;;;;;3.42;96.86;94794.56;5022228;28;20264;-67
2021/10/30 08:02:19;;;;;;;2.97;2.87;;;;;;;3.48;96.85;94783.50;5016126;28;20319;-67
2021/10/30 08:04:47;;;;;;;4.50;4.20;;;;;;;3.61;96.95;94785.63;5005984;28;20340;-67
2021/10/30 08:07:16;;;;;;;3.60;3.37;;;;;;;3.73;96.16;94779.09;5007012;28;20314;-67
2021/10/30 08:09:46;;;;;;;3.80;3.53;;;;;;;3.83;95.39;94773.69;5027546;28;20641;-67
2021/10/30 08:12:15;;;;;;;3.57;3.37;;;;;;;3.79;94.33;94783.66;5023718;28;20224;-67
2021/10/30 08:14:44;;;;;;;8.93;3.33;;;;;;;3.86;94.58;94784.63;5014547;28;20257;-67
2021/10/30 08:17:12;;;;;;;3.70;3.03;;;;;;;3.90;94.07;94779.91;5014198;28;20767;-67
2021/10/30 08:19:40;;;;;;;2.87;2.67;;;;;;;3.90;94.33;94764.25;5027462;28;20298;-68
2021/10/30 08:22:08;;;;;;;2.83;2.73;;;;;;;3.95;94.82;94754.94;5041356;28;20269;-67
2021/10/30 08:24:36;;;;;;;3.60;3.40;;;;;;;4.05;95.54;94772.22;5037415;28;20740;-67
2021/10/30 08:27:06;;;;;;;3.77;3.47;;;;;;;4.16;95.27;94770.06;5035565;28;20212;-67
2021/10/30 08:29:34;;;;;;;4.53;4.23;;;;;;;4.24;94.90;94777.91;5004176;28;20224;-67
2021/10/30 08:32:02;;;;;;;4.50;4.20;;;;;;;4.39;94.72;94785.03;5006652;28;20222;-67
2021/10/30 08:34:30;;;;;;;4.50;4.20;;;;;;;4.43;94.02;94786.34;5024699;28;20321;-68
2021/10/30 08:36:58;;;;;;;4.40;4.10;;;;;;;4.47;93.74;94782.41;5005740;28;20826;-67
2021/10/30 08:39:26;;;;;;;4.27;3.97;;;;;;;4.63;93.85;94784.97;5004560;28;20659;-67
2021/10/30 08:41:55;;;;;;;4.27;3.97;;;;;;;4.71;93.93;94774.47;5033216;28;20225;-67
2021/10/30 08:44:24;;;;;;;3.57;3.37;;;;;;;4.81;92.75;94784.72;5015094;28;21562;-68
2021/10/30 08:46:53;;;;;;;4.60;4.20;;;;;;;4.88;93.00;94779.66;5010267;28;20290;-67
2021/10/30 08:49:22;;;;;;;4.70;4.40;;;;;;;4.88;93.26;94764.78;5021109;28;20212;-68
2021/10/30 08:51:51;;;;;;;3.87;3.67;;;;;;;4.97;93.21;94770.78;5022184;28;20242;-67
2021/10/30 08:54:19;;;;;;;3.43;3.23;;;;;;;5.04;93.59;94780.38;5042127;28;20263;-67
2021/10/30 08:56:47;;;;;;;4.50;4.30;;;;;;;5.23;94.05;94768.69;5028992;28;20715;-68
2021/10/30 08:59:15;;;;;;;5.13;4.80;;;;;;;5.41;93.87;94777.06;5036042;28;20215;-68
2021/10/30 09:01:51;;;;;;;5.60;5.27;;;;;;;5.62;93.44;94759.91;5012080;28;20292;-68
2021/10/30 09:04:20;;;;;;;4.30;4.03;;;;;;;5.84;91.84;94748.59;5017859;28;20645;-67
2021/10/30 09:06:57;;;;;;;4.17;3.87;;;;;;;5.90;89.60;94755.78;5016918;28;20800;-67
2021/10/30 09:09:27;;;;;;;4.87;4.57;;;;;;;6.08;89.54;94746.78;5024452;28;20724;-68
2021/10/30 09:11:57;;;;;;;7.20;6.13;;;;;;;6.87;88.52;94742.63;5019779;28;20235;-67
2021/10/30 09:14:26;;;;;;;5.27;4.97;;;;;;;7.54;87.21;94739.72;5022191;28;20259;-68
2021/10/30 09:17:15;;;;;;;5.03;4.77;;;;;;;7.64;86.09;94724.44;5011546;28;20254;-68
2021/10/30 09:19:46;;;;;;;6.37;5.83;;;;;;;8.65;84.54;94718.91;5022122;28;20702;-68
2021/10/30 09:22:15;;;;;;;5.13;4.63;;;;;;;9.64;78.89;94721.84;5042380;28;20218;-68
2021/10/30 09:24:55;;;;;;;5.53;4.60;;;;;;;9.93;77.35;94726.72;5027555;28;20216;-68
2021/10/30 09:27:41;;;;;;;5.03;4.63;;;;;;;9.90;77.60;94723.72;5020500;28;20231;-67
2021/10/30 09:30:10;;;;;;;5.10;4.80;;;;;;;9.66;77.17;94736.44;5043663;28;20223;-67
2021/10/30 09:32:40;;;;;;;4.87;4.47;;;;;;;9.79;77.68;94729.59;5043644;28;20219;-67
2021/10/30 09:35:10;;;;;;;4.97;4.63;;;;;;;10.71;76.70;94734.00;5026070;28;20796;-67
2021/10/30 09:37:38;;;;;;;5.57;5.10;;;;;;;11.52;73.08;94736.06;5026625;28;20245;-68
2021/10/30 09:40:16;;;;;;;4.67;4.37;;;;;;;12.12;71.23;94710.06;5024643;28;20254;-68
2021/10/30 09:42:47;;;;;;;6.83;6.47;;;;;;;12.43;70.42;94717.09;5018227;28;20223;-68
2021/10/30 09:45:15;;;;;;;6.07;5.67;;;;;;;12.68;70.46;94715.22;5025345;28;20241;-68
2021/10/30 09:47:56;;;;;;;6.20;5.80;;;;;;;12.72;68.42;94721.72;5026888;28;20223;-68
2021/10/30 09:50:28;;;;;;;6.67;6.27;;;;;;;13.06;67.66;94709.69;5024497;28;20230;-68
2021/10/30 09:52:57;;;;;;;5.53;5.23;;;;;;;13.17;65.03;94726.72;5023507;28;20231;-68
2021/10/30 09:55:26;;;;;;;4.20;3.90;;;;;;;12.97;66.43;94707.59;5024465;28;20259;-68
2021/10/30 09:58:02;;;;;;;4.93;4.63;;;;;;;12.48;67.68;94714.63;5014881;28;20219;-67
2021/10/30 10:00:31;;;;;;;6.60;6.13;;;;;;;12.40;69.26;94723.66;5005817;28;20243;-67
2021/10/30 10:03:02;;;;;;;5.20;4.90;;;;;;;12.84;69.40;94697.16;5010359;28;20314;-68
2021/10/30 10:05:36;;;;;;;5.93;5.57;;;;;;;13.17;66.10;94707.38;5007603;28;20212;-68
2021/10/30 10:08:05;;;;;;;5.53;5.23;;;;;;;13.80;66.95;94691.81;5012250;28;20221;-68
2021/10/30 10:10:34;;;;;;;5.77;5.40;;;;;;;14.64;64.59;94694.34;5018103;28;20229;-67
2021/10/30 10:13:02;;;;;;;6.13;5.77;;;;;;;14.71;62.75;94681.72;5015477;28;20224;-67
2021/10/30 10:15:31;;;;;;;7.00;6.57;;;;;;;14.21;64.05;94687.50;5015675;28;20230;-68
2021/10/30 10:18:02;;;;;;;6.40;5.90;;;;;;;13.31;65.73;94693.75;5013315;28;20237;-68
2021/10/30 10:20:30;;;;;;;5.97;5.57;;;;;;;12.87;67.29;94691.41;5017900;28;20268;-68
2021/10/30 10:22:59;;;;;;;5.20;4.90;;;;;;;12.37;68.79;94707.41;5024368;28;20307;-68
2021/10/30 10:25:30;;;;;;;6.60;6.20;;;;;;;12.01;70.05;94693.06;5021561;28;20466;-68
2021/10/30 10:28:20;;;;;;;6.67;6.13;;;;;;;12.22;71.20;94687.38;5042233;28;20234;-68
2021/10/30 10:30:57;;;;;;;5.67;5.27;;;;;;;12.09;71.70;94687.53;5042322;28;20276;-68
2021/10/30 10:33:29;;;;;;;5.47;5.17;;;;;;;12.02;72.31;94673.53;5033253;28;20281;-68
2021/10/30 10:36:28;;;;;;;5.00;4.70;;;;;;;11.82;72.44;94688.75;5043280;28;20599;-68
2021/10/30 10:39:22;;;;;;;4.73;4.43;;;;;;;11.59;72.83;94674.25;4942364;28;22111;-68
2021/10/30 10:41:56;;;;;;;4.80;4.57;;;;;;;11.43;73.54;94677.41;5038457;28;20243;-68
2021/10/30 10:44:57;;;;;;;6.40;5.87;;;;;;;11.06;73.72;94685.13;5022333;28;20332;-68
2021/10/30 10:48:00;;;;;;;5.47;5.07;;;;;;;10.92;74.83;94667.72;5032130;28;20230;-68
2021/10/30 10:50:36;;;;;;;6.23;5.83;;;;;;;10.86;75.21;94668.56;5021145;28;20312;-68
2021/10/30 10:53:32;;;;;;;5.67;5.27;;;;;;;10.82;74.72;94693.75;5022860;28;20610;-68
2021/10/30 10:56:19;;;;;;;6.17;5.67;;;;;;;10.85;75.25;94688.06;4991711;28;20270;-68
2021/10/30 10:59:09;;;;;;;6.47;6.00;;;;;;;10.91;75.35;94671.38;5007519;28;20730;-68
2021/10/30 11:02:22;;;;;;;6.47;5.97;;;;;;;11.30;72.69;94690.69;5007654;28;20220;-68
2021/10/30 11:05:27;;;;;;;5.87;5.47;;;;;;;11.89;72.88;94663.09;5014083;28;20221;-68
2021/10/30 11:08:32;;;;;;;5.53;5.13;;;;;;;11.87;72.09;94679.16;5026006;28;20237;-68
2021/10/30 11:11:16;;;;;;;6.10;5.77;;;;;;;11.77;70.42;94680.63;5009083;28;20310;-68
2021/10/30 11:13:47;;;;;;;6.70;6.30;;;;;;;11.65;71.39;94678.69;5036660;28;20226;-68
2021/10/30 11:16:15;;;;;;;5.43;5.10;;;;;;;11.44;72.58;94691.44;5026037;28;20257;-68
2021/10/30 11:18:49;;;;;;;6.20;5.60;;;;;;;11.32;73.97;94691.28;5024988;28;20715;-68
2021/10/30 11:21:21;;;;;;;6.20;5.73;;;;;;;11.24;73.25;94681.78;5010093;28;20218;-68
2021/10/30 11:23:52;;;;;;;6.27;5.87;;;;;;;11.20;74.38;94679.78;5007410;28;20395;-68
2021/10/30 11:26:24;;;;;;;5.50;5.10;;;;;;;11.22;75.40;94683.00;5006708;28;20250;-67
2021/10/30 11:28:54;;;;;;;4.77;4.47;;;;;;;11.24;75.22;94680.97;5010713;28;20268;-68
2021/10/30 11:31:29;;;;;;;5.57;5.17;;;;;;;11.27;75.88;94680.56;5004605;28;20277;-68
2021/10/30 11:33:59;;;;;;;5.93;5.53;;;;;;;11.18;75.45;94681.81;5009530;28;20226;-68
2021/10/30 11:36:32;;;;;;;6.43;5.93;;;;;;;11.20;75.57;94682.41;5013747;28;20243;-68
2021/10/30 11:39:04;;;;;;;5.60;5.30;;;;;;;11.08;75.04;94677.00;5011393;28;20227;-68
2021/10/30 11:41:34;;;;;;;6.07;5.67;;;;;;;11.02;75.52;94694.47;5012337;28;20231;-68
2021/10/30 11:44:04;;;;;;;6.43;6.07;;;;;;;10.95;74.73;94696.34;5008568;28;21793;-68
2021/10/30 11:46:33;;;;;;;6.37;6.03;;;;;;;10.88;75.29;94698.22;5005842;28;20318;-67
2021/10/30 11:49:01;;;;;;;6.67;6.27;;;;;;;10.77;75.39;94696.19;5031328;28;20277;-68
2021/10/30 11:51:40;;;;;;;7.67;7.07;;;;;;;10.81;75.55;94694.78;5022933;28;20241;-68
2021/10/30 11:54:14;;;;;;;5.80;5.13;;;;;;;10.94;76.64;94701.81;5028138;28;20246;-68